Time;durP1;ratioP1;P1;durP2;ratioP2;P2;SDS_P1;SDS_P2;PMS_P1;PMS_P2;Temp;Humidity;BMP_temperature;BMP_pressure;BME280_temperature;BME280_humidity;BME280_pressure;Samples;Min_cycle;Max_cycle;Signal;HPM_P1;HPM_P2
2022/05/25 00:00:33;;;;;;;;;2.67;2.67;;;;;31.64;24.68;100927.91;4917176;28;45665;-81
2022/05/25 00:02:59;;;;;;;;;3.00;3.00;;;;;31.65;24.25;100917.81;4915819;28;45768;-81
2022/05/25 00:05:24;;;;;;;;;4.33;3.00;;;;;31.70;24.08;100929.34;4916875;28;45427;-81
2022/05/25 00:07:50;;;;;;;;;2.00;2.00;;;;;31.73;24.26;100930.97;4916834;28;45480;-81
2022/05/25 00:10:15;;;;;;;;;4.67;3.00;;;;;31.52;24.04;100887.56;4916616;28;45500;-81
2022/05/25 00:12:41;;;;;;;;;4.00;4.00;;;;;31.84;24.04;100943.97;4915276;28;45922;-81
2022/05/25 00:15:10;;;;;;;;;3.00;3.00;;;;;31.90;24.60;100949.03;4916816;28;45571;-81
2022/05/25 00:17:35;;;;;;;;;3.00;3.00;;;;;31.80;24.26;100944.19;4916740;28;46386;-81
2022/05/25 00:20:01;;;;;;;;;3.00;3.00;;;;;31.69;23.73;100924.84;4915188;28;45342;-81
2022/05/25 00:22:48;;;;;;;;;3.00;3.00;;;;;31.85;24.40;100945.75;4917156;28;45713;-81
2022/05/25 00:25:19;;;;;;;;;3.33;2.33;;;;;31.53;24.34;100902.13;4916348;28;45462;-81
2022/05/25 00:27:44;;;;;;;;;4.00;3.00;;;;;31.67;24.00;100939.63;4916054;28;46120;-81
2022/05/25 00:30:11;;;;;;;;;3.33;3.00;;;;;31.78;24.55;100950.75;4915157;28;45444;-81
2022/05/25 00:32:37;;;;;;;;;2.00;2.00;;;;;31.67;24.42;100928.66;4916646;28;45461;-81
2022/05/25 00:35:04;;;;;;;;;3.67;3.00;;;;;31.67;24.28;100937.75;4915231;28;45449;-81
2022/05/25 00:37:29;;;;;;;;;4.33;2.67;;;;;31.61;24.15;100928.09;4916479;28;46290;-81
2022/05/25 00:39:55;;;;;;;;;5.00;2.67;;;;;31.75;24.32;100950.97;4916384;28;45373;-81
2022/05/25 00:42:20;;;;;;;;;4.00;4.00;;;;;31.76;24.06;100953.63;4916200;28;45328;-81
2022/05/25 00:44:46;;;;;;;;;4.00;3.00;;;;;31.69;24.19;100951.38;4916470;28;45368;-81
2022/05/25 00:47:22;;;;;;;;;3.33;2.00;;;;;31.65;24.01;100964.44;4916305;28;45572;-81
2022/05/25 00:49:48;;;;;;;;;3.67;2.67;;;;;31.36;24.49;100939.75;4916440;28;45463;-81
2022/05/25 00:52:15;;;;;;;;;3.67;3.67;;;;;31.32;24.83;100959.28;4915985;28;45313;-81
2022/05/25 00:54:54;;;;;;;;;3.67;3.00;;;;;31.01;24.97;100931.97;4915288;28;45600;-81
2022/05/25 00:57:30;;;;;;;;;3.00;3.00;;;;;31.03;24.88;100954.69;4915724;28;45435;-81
2022/05/25 01:00:04;;;;;;;;;3.67;3.00;;;;;30.92;24.92;100962.69;4916256;28;45430;-81
2022/05/25 01:02:32;;;;;;;;;2.00;2.00;;;;;30.84;24.87;100962.28;4915198;28;45369;-82
2022/05/25 01:04:57;;;;;;;;;3.00;3.00;;;;;30.86;24.76;100946.63;4916349;28;45380;-82
2022/05/25 01:07:38;;;;;;;;;2.67;2.00;;;;;31.08;24.95;100979.06;4915905;28;45355;-81
2022/05/25 01:10:09;;;;;;;;;3.00;3.00;;;;;31.11;25.03;100979.75;4915725;28;45411;-81
2022/05/25 01:12:38;;;;;;;;;3.67;3.67;;;;;31.07;25.20;100983.66;4916344;28;45554;-81
2022/05/25 01:15:09;;;;;;;;;2.00;2.00;;;;;31.03;25.05;100983.97;4916426;28;45336;-81
2022/05/25 01:17:46;;;;;;;;;2.00;2.00;;;;;30.90;24.85;100976.47;4915696;28;45563;-81
2022/05/25 01:20:28;;;;;;;;;2.00;2.00;;;;;30.90;25.16;100989.28;4915658;28;45356;-81
2022/05/25 01:23:15;;;;;;;;;1.00;1.00;;;;;30.95;25.21;100990.75;4914922;28;45652;-82
2022/05/25 01:26:11;;;;;;;;;1.00;1.00;;;;;30.80;24.97;100956.09;4914553;28;45555;-81
2022/05/25 01:29:06;;;;;;;;;3.00;2.33;;;;;31.01;24.38;100980.41;4915617;28;46220;-82
2022/05/25 01:31:56;;;;;;;;;2.00;2.00;;;;;31.19;24.92;101001.16;4915760;28;45513;-81
2022/05/25 01:34:24;;;;;;;;;2.00;2.00;;;;;31.23;25.01;100994.50;4914679;28;45357;-81
2022/05/25 01:36:59;;;;;;;;;2.00;2.00;;;;;31.31;24.43;100994.03;4916017;28;45409;-81
2022/05/25 01:39:29;;;;;;;;;1.67;1.67;;;;;31.24;25.06;100995.41;4915246;28;46555;-81
2022/05/25 01:42:01;;;;;;;;;5.00;2.33;;;;;31.09;25.02;100992.66;4915614;28;45368;-81
2022/05/25 01:44:32;;;;;;;;;3.67;3.67;;;;;31.07;24.86;100989.16;4915859;28;45411;-82
2022/05/25 01:47:03;;;;;;;;;2.00;2.00;;;;;31.20;24.96;101005.69;4915803;28;45320;-82
2022/05/25 01:49:35;;;;;;;;;2.33;2.33;;;;;31.13;25.14;101013.41;4915549;28;45431;-82
2022/05/25 01:52:05;;;;;;;;;3.00;3.00;;;;;31.07;24.87;100989.16;4915662;28;45331;-82
2022/05/25 01:54:38;;;;;;;;;3.00;3.00;;;;;31.01;24.89;100980.41;4914225;28;45438;-82
2022/05/25 01:57:10;;;;;;;;;2.67;2.67;;;;;30.94;24.81;100988.13;4915567;28;45377;-81
2022/05/25 01:59:35;;;;;;;;;2.67;2.67;;;;;30.55;25.21;100934.84;4915512;28;45355;-81
2022/05/25 02:04:49;;;;;;;;;3.00;3.00;;;;;30.98;25.06;101006.13;4915688;28;45547;-82
2022/05/25 02:07:36;;;;;;;;;1.00;1.00;;;;;31.07;25.00;101011.06;4914046;28;45585;-82
2022/05/25 02:10:25;;;;;;;;;3.33;2.00;;;;;31.00;24.34;100982.25;4915053;28;46511;-81
2022/05/25 02:12:56;;;;;;;;;2.00;2.00;;;;;31.07;24.88;101018.38;4915371;28;45447;-82
2022/05/25 02:15:44;;;;;;;;;3.00;3.00;;;;;31.07;25.03;101022.03;4914988;28;45344;-82
2022/05/25 02:18:34;;;;;;;;;2.00;2.00;;;;;30.94;24.70;100996.34;4915272;28;45384;-81
2022/05/25 02:21:06;;;;;;;;;2.00;2.00;;;;;31.08;24.66;101022.91;4913621;28;48069;-81
2022/05/25 02:23:48;;;;;;;;;2.00;2.00;;;;;30.86;24.77;101004.16;4914903;28;45457;-81
2022/05/25 02:26:39;;;;;;;;;3.00;3.00;;;;;30.91;24.93;101024.78;4913988;28;45381;-82
2022/05/25 02:29:11;;;;;;;;;3.33;2.33;;;;;30.43;24.97;100963.88;4913923;28;45474;-81
2022/05/25 02:31:45;;;;;;;;;3.33;2.67;;;;;30.61;25.12;101002.94;4914942;28;45633;-81
2022/05/25 02:34:14;;;;;;;;;2.00;1.33;;;;;30.56;25.22;101010.56;4914931;28;45231;-81
2022/05/25 02:36:41;;;;;;;;;2.67;2.33;;;;;30.57;25.21;101013.19;4913751;28;45457;-81
2022/05/25 02:39:09;;;;;;;;;2.00;2.00;;;;;30.73;25.43;101031.41;4914742;28;45576;-81
2022/05/25 02:41:42;;;;;;;;;2.00;2.00;;;;;30.69;25.31;101027.09;4914880;28;45410;-82
2022/05/25 02:44:08;;;;;;;;;3.33;2.00;;;;;30.72;24.98;101025.06;4915031;28;45451;-82
2022/05/25 02:46:34;;;;;;;;;1.67;1.67;;;;;30.68;25.30;101022.63;4913745;28;45365;-81
2022/05/25 02:48:59;;;;;;;;;3.00;3.00;;;;;30.73;25.15;101034.16;4914966;28;45386;-82
2022/05/25 02:51:24;;;;;;;;;3.00;3.00;;;;;30.72;24.97;101025.06;4913999;28;51442;-81
2022/05/25 02:53:50;;;;;;;;;2.00;2.00;;;;;30.55;25.42;101028.84;4913748;28;45353;-81
2022/05/25 02:56:15;;;;;;;;;2.00;2.00;;;;;30.50;25.26;101021.91;4914690;28;45375;-81
2022/05/25 02:58:41;;;;;;;;;2.33;2.33;;;;;30.40;25.59;101014.19;4914896;28;45448;-82
2022/05/25 03:01:06;;;;;;;;;4.00;3.00;;;;;30.55;25.52;101038.91;4914522;28;45386;-82
2022/05/25 03:03:37;;;;;;;;;2.00;2.00;;;;;30.66;25.56;101043.72;4914679;28;45457;-81
2022/05/25 03:06:04;;;;;;;;;1.33;1.33;;;;;30.62;25.22;101038.44;4914351;28;45413;-81
2022/05/25 03:08:30;;;;;;;;;2.33;2.33;;;;;30.71;25.12;101055.31;4913393;28;45512;-81
2022/05/25 03:10:55;;;;;;;;;2.67;2.67;;;;;30.64;25.39;101046.56;4914369;28;45583;-81
2022/05/25 03:13:21;;;;;;;;;3.00;3.00;;;;;30.61;25.32;101033.06;4914197;28;45882;-82
2022/05/25 03:15:46;;;;;;;;;2.33;2.33;;;;;30.50;25.10;101030.97;4914699;28;45419;-81
2022/05/25 03:18:11;;;;;;;;;2.00;2.00;;;;;30.52;25.51;101047.31;4914513;28;45444;-81
2022/05/25 03:20:37;;;;;;;;;3.00;2.00;;;;;30.58;25.67;101055.16;4912433;28;47487;-82
2022/05/25 03:23:03;;;;;;;;;3.67;3.00;;;;;30.66;25.28;101074.75;4914326;28;45477;-81
2022/05/25 03:25:29;;;;;;;;;1.33;1.33;;;;;30.75;25.59;101084.28;4914278;28;45539;-81
2022/05/25 03:27:54;;;;;;;;;2.33;2.33;;;;;30.74;24.70;101077.88;4917374;28;45387;-82
2022/05/25 03:30:20;;;;;;;;;2.00;2.00;;;;;30.81;25.02;101088.50;4917079;28;50956;-81
2022/05/25 03:32:45;;;;;;;;;3.00;2.00;;;;;30.82;25.00;101082.91;4915951;28;45688;-81
2022/05/25 03:35:11;;;;;;;;;2.67;2.33;;;;;30.71;25.32;101069.88;4916999;28;45386;-82
2022/05/25 03:37:37;;;;;;;;;2.00;2.00;;;;;30.89;24.89;101095.25;4916086;28;45499;-82
2022/05/25 03:40:05;;;;;;;;;3.00;2.00;;;;;30.70;24.92;101067.22;4917177;28;46450;-81
2022/05/25 03:42:31;;;;;;;;;2.33;2.33;;;;;30.70;25.18;101057.13;4915637;28;45849;-81
2022/05/25 03:44:56;;;;;;;;;2.00;2.00;;;;;30.92;24.90;101091.44;4916080;28;45508;-81
2022/05/25 03:47:21;;;;;;;;;2.00;2.00;;;;;30.79;24.73;101077.63;4917109;28;45543;-81
2022/05/25 03:49:47;;;;;;;;;2.00;2.00;;;;;30.64;24.61;101060.25;4916821;28;45383;-81
2022/05/25 03:52:18;;;;;;;;;2.00;1.00;;;;;30.84;24.92;101096.50;4915718;28;45479;-82
2022/05/25 03:54:44;;;;;;;;;2.00;2.00;;;;;30.76;25.11;101100.59;4915933;28;45341;-82
2022/05/25 03:57:09;;;;;;;;;3.00;3.00;;;;;30.67;24.68;101087.44;4916862;28;45371;-82
2022/05/25 03:59:34;;;;;;;;;3.00;3.00;;;;;30.74;24.68;101113.50;4916833;28;46206;-81
2022/05/25 04:02:01;;;;;;;;;4.00;3.00;;;;;30.74;24.83;101129.94;4916711;28;54388;-81
2022/05/25 04:04:26;;;;;;;;;3.00;3.00;;;;;30.53;25.34;101096.50;4916793;28;45559;-81
2022/05/25 04:06:51;;;;;;;;;3.67;2.00;;;;;30.64;25.20;101119.63;4915676;28;45406;-81
2022/05/25 04:09:17;;;;;;;;;4.00;2.00;;;;;30.72;24.92;101129.16;4915267;28;47826;-81
2022/05/25 04:11:43;;;;;;;;;2.00;2.00;;;;;30.57;25.01;101117.25;4916961;28;45332;-81
2022/05/25 04:14:09;;;;;;;;;2.67;2.67;;;;;30.54;25.34;101117.44;4917093;28;45522;-82
2022/05/25 04:16:34;;;;;;;;;3.00;3.00;;;;;30.54;25.33;101117.44;4916601;28;45444;-81
2022/05/25 04:19:00;;;;;;;;;2.33;2.33;;;;;30.48;25.10;101117.81;4916004;28;45547;-81
2022/05/25 04:21:26;;;;;;;;;3.00;2.00;;;;;30.62;25.45;101136.16;4915388;28;45540;-81
2022/05/25 04:23:51;;;;;;;;;3.33;2.33;;;;;30.40;25.39;101100.91;4917104;28;45387;-82
2022/05/25 04:26:17;;;;;;;;;3.00;3.00;;;;;30.61;25.32;101139.88;4916730;28;45412;-80
2022/05/25 04:28:42;;;;;;;;;2.00;2.00;;;;;30.50;24.97;101107.63;4916230;28;45456;-79
2022/05/25 04:31:08;;;;;;;;;3.00;3.00;;;;;30.48;25.58;101103.22;4929280;28;45467;-81
2022/05/25 04:33:35;;;;;;;;;1.33;1.33;;;;;30.58;24.72;101119.03;4924041;28;45510;-79
2022/05/25 04:36:00;;;;;;;;;3.00;3.00;;;;;30.58;24.99;101134.56;4920767;28;45391;-80
2022/05/25 04:38:26;;;;;;;;;2.00;2.00;;;;;30.52;25.08;101134.91;4934068;28;46612;-81
2022/05/25 04:40:51;;;;;;;;;2.00;2.00;;;;;30.46;25.33;101125.22;4931041;28;45622;-81
2022/05/25 04:43:20;;;;;;;;;3.00;3.00;;;;;30.59;25.33;101155.47;4919214;28;45427;-79
2022/05/25 04:45:47;;;;;;;;;3.33;2.67;;;;;30.50;24.93;101143.22;4916655;28;45312;-79
2022/05/25 04:48:14;;;;;;;;;2.33;2.33;;;;;30.54;25.26;101146.69;4924901;28;46437;-80
2022/05/25 04:50:42;;;;;;;;;3.00;3.00;;;;;30.57;25.55;101149.22;4928831;28;45502;-79
2022/05/25 04:53:12;;;;;;;;;4.00;4.00;;;;;30.39;25.55;101141.09;4935829;28;45669;-79
2022/05/25 04:58:28;;;;;;;;;8.00;8.00;;;;;30.42;25.68;101145.50;4935272;28;45528;-81
2022/05/25 05:00:54;;;;;;;;;6.00;6.00;;;;;30.56;25.05;101161.16;4929849;28;45400;-80
2022/05/25 05:03:21;;;;;;;;;7.00;4.00;;;;;30.55;25.02;101162.13;4935066;28;45356;-80
2022/05/25 05:05:47;;;;;;;;;3.00;3.00;;;;;30.24;25.42;101131.06;4926684;28;45418;-81
2022/05/25 05:08:13;;;;;;;;;4.33;3.00;;;;;30.50;25.31;101183.44;4917381;28;46277;-81
2022/05/25 05:10:39;;;;;;;;;5.00;4.00;;;;;30.20;25.60;101134.94;4955297;28;45306;-80
2022/05/25 05:13:04;;;;;;;;;5.00;5.00;;;;;30.08;25.79;101109.16;4966605;28;45618;-81
2022/05/25 05:15:41;;;;;;;;;4.00;4.00;;;;;30.55;25.80;101184.03;4900315;28;45599;-80
2022/05/25 05:18:07;;;;;;;;;2.67;2.67;;;;;30.53;25.05;101169.56;4921027;28;46301;-82
2022/05/25 05:20:32;;;;;;;;;4.00;4.00;;;;;30.43;25.71;101169.19;4927079;28;45423;-80
2022/05/25 05:22:58;;;;;;;;;6.00;4.67;;;;;30.38;25.09;101149.38;4919146;28;45471;-79
2022/05/25 05:25:24;;;;;;;;;5.67;4.67;;;;;30.36;25.85;101144.00;4907267;28;45600;-79
2022/05/25 05:27:49;;;;;;;;;3.00;3.00;;;;;30.47;25.48;101142.53;4935023;28;46262;-81
2022/05/25 05:30:19;;;;;;;;;4.00;4.00;;;;;30.71;25.18;101179.41;4905696;28;45585;-79
2022/05/25 05:32:45;;;;;;;;;4.00;4.00;;;;;30.76;25.51;101177.28;4910597;28;45356;-79
2022/05/25 05:35:12;;;;;;;;;5.33;5.00;;;;;30.82;25.68;101181.53;4933934;28;45549;-81
2022/05/25 05:37:42;;;;;;;;;7.00;5.67;;;;;30.74;25.18;101168.28;4941986;28;48451;-80
2022/05/25 05:40:12;;;;;;;;;5.67;5.00;;;;;30.98;24.90;101186.97;4926280;28;45417;-79
2022/05/25 05:42:39;;;;;;;;;5.00;3.67;;;;;30.68;25.11;101126.69;4922989;28;45589;-78
2022/05/25 05:45:12;;;;;;;;;5.00;5.00;;;;;31.14;25.15;101195.19;4923173;28;45538;-78
2022/05/25 05:47:45;;;;;;;;;6.00;6.00;;;;;31.07;25.15;101175.50;4916880;28;45999;-78
2022/05/25 05:50:12;;;;;;;;;6.33;6.00;;;;;31.04;25.16;101167.47;4926868;28;45389;-79
2022/05/25 05:52:37;;;;;;;;;5.33;5.33;;;;;31.39;25.15;101200.06;4917547;28;45386;-78
2022/05/25 05:55:04;;;;;;;;;4.33;4.33;;;;;31.45;25.17;101193.31;4939858;28;45574;-79
2022/05/25 05:57:33;;;;;;;;;5.00;5.00;;;;;31.25;24.98;101175.31;4926668;28;47579;-78
2022/05/25 05:59:58;;;;;;;;;6.33;6.33;;;;;31.45;24.68;101191.44;4895848;28;45448;-79
2022/05/25 06:02:24;;;;;;;;;5.00;5.00;;;;;31.41;25.04;101178.88;4896191;28;45507;-79
2022/05/25 06:04:49;;;;;;;;;5.00;5.00;;;;;31.35;24.50;101161.94;4908979;28;45514;-79
2022/05/25 06:07:14;;;;;;;;;5.00;5.00;;;;;31.56;24.63;101193.50;4920868;28;46406;-79
2022/05/25 06:09:40;;;;;;;;;8.00;7.67;;;;;31.62;24.40;101193.16;4918898;28;45481;-79
2022/05/25 06:12:05;;;;;;;;;7.00;6.00;;;;;31.56;24.31;101185.28;4918538;28;45528;-80
2022/05/25 06:14:31;;;;;;;;;5.67;5.67;;;;;31.55;24.74;101201.84;4924625;28;45485;-79
2022/05/25 06:19:40;;;;;;;;;7.00;7.00;;;;;31.66;24.07;101201.19;4925847;28;45527;-81
2022/05/25 06:22:09;;;;;;;;;7.67;7.00;;;;;31.75;24.47;101209.72;4913962;28;45842;-78
2022/05/25 06:24:39;;;;;;;;;6.67;6.00;;;;;31.83;24.16;101205.59;4910686;28;45542;-80
2022/05/25 06:27:08;;;;;;;;;7.33;7.00;;;;;31.72;24.07;101212.66;4913115;28;45664;-80
2022/05/25 06:29:37;;;;;;;;;7.00;7.00;;;;;31.69;24.77;101210.09;4916073;28;45448;-79
2022/05/25 06:32:04;;;;;;;;;7.33;7.33;;;;;31.58;24.60;101207.16;4915129;28;45399;-80
2022/05/25 06:34:29;;;;;;;;;8.33;7.00;;;;;31.86;24.11;101233.72;4913759;28;46771;-79
2022/05/25 06:36:55;;;;;;;;;10.00;7.50;;;;;31.67;24.17;101220.28;4914969;28;45400;-79
2022/05/25 06:39:20;;;;;;;;;4.67;4.67;;;;;31.62;24.42;101228.81;4914719;28;45428;-79
2022/05/25 06:41:45;;;;;;;;;6.00;5.00;;;;;31.57;24.26;101224.56;4931307;28;45233;-79
2022/05/25 06:44:11;;;;;;;;;6.00;6.00;;;;;31.50;23.76;101218.56;4932981;28;45590;-80
2022/05/25 06:46:36;;;;;;;;;5.00;5.00;;;;;31.60;23.92;101227.13;4901588;28;45710;-79
2022/05/25 06:49:02;;;;;;;;;7.00;5.67;;;;;31.61;23.76;101224.28;4909345;28;45530;-79
2022/05/25 06:51:33;;;;;;;;;5.67;5.67;;;;;31.69;23.93;101226.56;4931685;28;45415;-79
2022/05/25 06:53:59;;;;;;;;;4.33;4.33;;;;;31.73;23.68;101266.53;4918371;28;45483;-79
2022/05/25 06:56:25;;;;;;;;;5.00;4.67;;;;;31.75;23.73;101259.09;4920010;28;45457;-79
2022/05/25 06:58:52;;;;;;;;;5.00;3.67;;;;;31.56;23.59;101220.94;4947192;28;45542;-79
2022/05/25 07:01:19;;;;;;;;;2.00;2.00;;;;;31.70;23.77;101260.34;4934765;28;45448;-80
2022/05/25 07:03:44;;;;;;;;;4.00;4.00;;;;;31.21;23.81;101181.97;4931138;28;45430;-79
2022/05/25 07:06:11;;;;;;;;;6.00;3.33;;;;;31.46;23.57;101216.97;4932766;28;45510;-79
2022/05/25 07:08:37;;;;;;;;;4.33;4.33;;;;;30.95;23.36;101132.34;4932317;28;45580;-79
2022/05/25 07:11:02;;;;;;;;;5.00;3.67;;;;;31.17;22.96;101175.81;4901659;28;45451;-80
2022/05/25 07:13:29;;;;;;;;;4.67;3.67;;;;;31.19;23.20;101173.84;4928811;28;45408;-80
2022/05/25 07:16:02;;;;;;;;;7.00;4.00;;;;;31.51;23.22;101245.00;4913698;28;48156;-80
2022/05/25 07:18:28;;;;;;;;;3.00;2.00;;;;;31.53;23.32;101232.06;4931164;28;46080;-80
2022/05/25 07:21:08;;;;;;;;;2.00;1.67;;;;;31.13;23.73;101161.41;4923618;28;45635;-78
2022/05/25 07:23:39;;;;;;;;;2.00;2.00;;;;;31.61;23.35;101259.94;4916818;28;45541;-80
2022/05/25 07:26:08;;;;;;;;;1.67;1.67;;;;;31.56;22.80;101252.94;4931625;28;47369;-85
2022/05/25 07:28:35;;;;;;;;;2.00;2.00;;;;;31.54;22.56;101246.69;4935826;28;45447;-84
2022/05/25 07:31:04;;;;;;;;;1.00;1.00;;;;;31.42;22.31;101193.47;4941775;28;45578;-83
2022/05/25 07:33:30;;;;;;;;;2.00;2.00;;;;;31.96;22.58;101280.69;4911863;28;45669;-86
2022/05/25 07:35:55;;;;;;;;;3.00;1.67;;;;;31.55;22.47;101210.06;4938303;28;46929;-85
2022/05/25 07:38:21;;;;;;;;;4.00;2.33;;;;;31.89;22.51;101265.59;4931361;28;45447;-85
2022/05/25 07:40:48;;;;;;;;;2.33;2.00;;;;;31.39;22.73;101191.81;4909094;28;45534;-85
2022/05/25 07:43:18;;;;;;;;;3.00;2.00;;;;;31.61;22.99;101232.50;4914603;28;45479;-85
2022/05/25 07:45:45;;;;;;;;;2.00;2.00;;;;;31.72;22.54;101237.34;4917378;28;48265;-84
2022/05/25 07:48:11;;;;;;;;;4.33;4.00;;;;;31.48;22.00;101193.09;4953349;28;45508;-84
2022/05/25 07:50:38;;;;;;;;;5.00;2.00;;;;;31.51;22.78;101178.31;4950558;28;45690;-82
2022/05/25 07:53:55;;;;;;;;;2.33;2.33;;;;;31.96;22.50;101248.63;4957210;28;45331;-83
2022/05/25 07:55:50;;;;;;;;;1.00;1.00;;;;;32.06;21.99;101248.91;4970988;28;46355;-82
2022/05/25 07:58:16;;;;;;;;;2.00;2.00;;;;;32.01;22.16;101214.50;5010521;28;45719;-83
2022/05/25 08:00:41;;;;;;;;;1.00;1.00;;;;;32.56;22.05;101303.44;4960162;28;45515;-83
2022/05/25 08:05:54;;;;;;;;;1.00;1.00;;;;;32.04;22.04;101208.81;4971849;28;45585;-82
2022/05/25 08:08:25;;;;;;;;;2.33;2.33;;;;;31.99;21.97;101218.22;4995486;28;45537;-83
2022/05/25 08:10:54;;;;;;;;;1.33;1.33;;;;;32.02;21.91;101235.50;4996783;28;45583;-84
2022/05/25 08:13:21;;;;;;;;;0.00;0.00;;;;;32.21;21.84;101292.88;4979816;28;45526;-83
2022/05/25 08:15:47;;;;;;;;;1.00;1.00;;;;;31.98;21.77;101259.50;4970074;28;45472;-82
2022/05/25 08:18:14;;;;;;;;;1.00;1.00;;;;;31.86;21.28;101243.84;4951394;28;45431;-81
2022/05/25 08:20:41;;;;;;;;;1.00;1.00;;;;;32.14;21.49;101311.63;4963377;28;45440;-81
2022/05/25 08:23:08;;;;;;;;;1.00;1.00;;;;;31.95;21.23;101241.34;4951697;28;45785;-83
2022/05/25 08:25:35;;;;;;;;;2.00;1.00;;;;;32.36;21.86;101327.56;4962419;28;45447;-83
2022/05/25 08:28:01;;;;;;;;;1.33;1.33;;;;;32.01;21.35;101278.53;5011583;28;46445;-83
2022/05/25 08:30:27;;;;;;;;;0.33;0.33;;;;;32.07;21.01;101269.03;4996708;28;45386;-83
2022/05/25 08:32:52;;;;;;;;;1.00;1.00;;;;;32.01;20.98;101234.63;4985477;28;45862;-83
2022/05/25 08:35:18;;;;;;;;;1.00;1.00;;;;;32.03;21.00;101229.91;4985572;28;47307;-81
2022/05/25 08:37:43;;;;;;;;;1.33;0.00;;;;;31.93;21.38;101234.22;4975314;28;46559;-80
2022/05/25 08:40:11;;;;;;;;;1.00;1.00;;;;;32.61;21.07;101323.25;4972614;28;45583;-82
2022/05/25 08:42:45;;;;;;;;;1.00;1.00;;;;;32.37;21.34;101270.81;4993803;28;45818;-79
2022/05/25 08:45:13;;;;;;;;;0.67;0.67;;;;;32.32;21.07;101227.16;4986810;28;45562;-78
2022/05/25 08:47:46;;;;;;;;;2.00;0.67;;;;;32.83;21.23;101284.28;4993315;28;45487;-83
2022/05/25 08:50:12;;;;;;;;;1.00;0.67;;;;;32.46;21.05;101227.16;4945437;28;45823;-83
2022/05/25 08:52:38;;;;;;;;;0.33;0.33;;;;;32.61;21.11;101241.72;4966409;28;45578;-82
2022/05/25 08:55:08;;;;;;;;;0.67;0.67;;;;;32.71;20.59;101257.63;4968314;28;45675;-84
2022/05/25 08:57:40;;;;;;;;;0.00;0.00;;;;;32.38;20.94;101214.91;4963640;28;45487;-85
2022/05/25 09:00:13;;;;;;;;;1.67;0.00;;;;;32.57;20.74;101280.50;4968955;28;45960;-85
2022/05/25 09:02:41;;;;;;;;;0.00;0.00;;;;;32.92;21.01;101332.25;4954903;28;45599;-83
2022/05/25 09:05:48;;;;;;;;;1.33;0.00;;;;;32.83;21.07;101323.63;4967975;28;47184;-84
2022/05/25 09:08:44;;;;;;;;;1.33;0.00;;;;;32.39;20.61;101241.38;4981455;28;45514;-85
2022/05/25 09:11:38;;;;;;;;;1.00;0.00;;;;;32.06;20.47;101224.22;4979270;28;45521;-84
2022/05/25 09:14:27;;;;;;;;;0.00;0.00;;;;;32.74;19.98;101329.75;4984718;28;45451;-85
2022/05/25 09:16:57;;;;;;;;;0.00;0.00;;;;;32.38;20.28;101284.44;4971591;28;48115;-85
2022/05/25 09:19:28;;;;;;;;;1.00;1.00;;;;;32.01;19.91;101226.41;4946799;28;45709;-84
2022/05/25 09:22:01;;;;;;;;;0.00;0.00;;;;;32.09;19.81;101245.09;4973555;28;45455;-84
2022/05/25 09:24:28;;;;;;;;;0.00;0.00;;;;;32.17;20.05;101242.78;4966919;28;45601;-82
2022/05/25 09:26:54;;;;;;;;;1.00;0.33;;;;;32.44;20.12;101283.16;4962851;28;47675;-82
2022/05/25 09:29:21;;;;;;;;;0.00;0.00;;;;;32.34;19.56;101258.16;4961452;28;45790;-84
2022/05/25 09:31:53;;;;;;;;;1.00;0.00;;;;;32.71;19.29;101340.94;5006942;28;45535;-83
2022/05/25 09:34:33;;;;;;;;;0.00;0.00;;;;;32.61;19.52;101287.53;4982497;28;45415;-84
2022/05/25 09:37:10;;;;;;;;;0.00;0.00;;;;;32.47;19.16;101239.00;4981245;28;45539;-83
2022/05/25 09:39:41;;;;;;;;;0.00;0.00;;;;;32.54;19.22;101236.75;5010438;28;45488;-83
2022/05/25 09:42:13;;;;;;;;;0.67;0.00;;;;;32.60;19.06;101269.28;5019609;28;45484;-84
2022/05/25 09:44:39;;;;;;;;;0.00;0.00;;;;;32.37;19.26;101240.59;4969560;28;45657;-83
2022/05/25 09:47:07;;;;;;;;;1.67;0.33;;;;;32.10;19.28;101206.56;4990126;28;47150;-83
2022/05/25 09:49:47;;;;;;;;;0.00;0.00;;;;;32.71;19.11;101312.59;4963758;28;45476;-83
2022/05/25 09:52:36;;;;;;;;;0.00;0.00;;;;;32.71;18.90;101338.19;5001555;28;45506;-79
2022/05/25 09:55:06;;;;;;;;;0.00;0.00;;;;;33.05;17.97;101326.81;4958254;28;45336;-80
2022/05/25 09:57:36;;;;;;;;;0.00;0.00;;;;;33.00;18.59;101284.03;4934189;28;45516;-81
2022/05/25 10:00:18;;;;;;;;;0.00;0.00;;;;;32.62;17.82;101238.00;4932886;28;46305;-79
2022/05/25 10:02:46;;;;;;;;;0.67;0.33;;;;;33.29;18.08;101335.31;4917226;28;45519;-80
2022/05/25 10:05:16;;;;;;;;;0.00;0.00;;;;;33.05;18.05;101283.72;4909421;28;45961;-83
2022/05/25 10:07:55;;;;;;;;;0.00;0.00;;;;;33.44;18.02;101328.75;4919024;28;46557;-82
2022/05/25 10:10:29;;;;;;;;;0.00;0.00;;;;;33.36;17.38;101342.16;4913208;28;45619;-82
2022/05/25 10:13:13;;;;;;;;;0.00;0.00;;;;;33.43;17.86;101348.13;4905468;28;45482;-78
2022/05/25 10:15:39;;;;;;;;;0.67;0.00;;;;;33.53;17.21;101337.38;4916363;28;45438;-80
2022/05/25 10:18:05;;;;;;;;;0.00;0.00;;;;;33.43;17.04;101302.25;4913871;28;46205;-80
2022/05/25 10:20:52;;;;;;;;;0.00;0.00;;;;;33.48;17.70;101297.31;4952337;28;45526;-80
2022/05/25 10:23:18;;;;;;;;;0.00;0.00;;;;;33.50;17.48;101325.59;4932579;28;45458;-79
2022/05/25 10:25:47;;;;;;;;;3.00;0.00;;;;;33.12;17.49;101252.09;4921742;28;45517;-80
2022/05/25 10:28:28;;;;;;;;;0.00;0.00;;;;;33.53;17.59;101315.38;4926840;28;47709;-80
2022/05/25 10:37:08;;;;;;;;;0.00;0.00;;;;;33.73;17.43;101352.47;4939684;28;45388;-85
2022/05/25 10:39:36;;;;;;;;;0.00;0.00;;;;;33.41;16.97;101295.97;4938057;28;47356;-84
2022/05/25 10:42:18;;;;;;;;;0.00;0.00;;;;;33.78;17.41;101334.69;4930586;28;45617;-81
2022/05/25 10:44:59;;;;;;;;;0.00;0.00;;;;;33.57;17.64;101327.91;4922248;28;45460;-80
2022/05/25 10:47:50;;;;;;;;;0.00;0.00;;;;;33.39;17.98;101330.97;4946917;28;45470;-81
2022/05/25 10:50:22;;;;;;;;;0.00;0.00;;;;;33.05;17.81;101277.34;4934497;28;46319;-84
2022/05/25 10:53:02;;;;;;;;;0.00;0.00;;;;;33.35;16.95;101279.91;4964217;28;45484;-84
2022/05/25 10:55:37;;;;;;;;;1.00;0.00;;;;;33.49;16.97;101299.06;4944355;28;45592;-88
2022/05/25 10:58:30;;;;;;;;;0.00;0.00;;;;;33.84;17.37;101339.78;4916486;28;45513;-85
2022/05/25 11:01:18;;;;;;;;;0.33;0.00;;;;;33.91;17.07;101292.56;4949244;28;47984;-85
2022/05/25 11:03:46;;;;;;;;;0.67;0.00;;;;;34.21;17.69;101322.53;4925617;28;45972;-85
2022/05/25 11:06:39;;;;;;;;;0.00;0.00;;;;;33.47;18.07;101248.81;4939898;28;45464;-85
2022/05/25 11:09:33;;;;;;;;;0.67;0.00;;;;;33.89;17.24;101333.94;4910096;28;45623;-86
2022/05/25 11:12:20;;;;;;;;;0.00;0.00;;;;;34.05;17.56;101339.28;4956972;28;47401;-86
2022/05/25 11:15:02;;;;;;;;;0.00;0.00;;;;;34.15;17.08;101322.94;4929012;28;46201;-85
2022/05/25 11:17:42;;;;;;;;;0.00;0.00;;;;;34.18;17.29;101334.63;4918008;28;45438;-85
2022/05/25 11:20:41;;;;;;;;;0.00;0.00;;;;;33.78;17.25;101287.91;4919147;28;45400;-85
2022/05/25 11:23:13;;;;;;;;;0.00;0.00;;;;;33.76;16.94;101336.69;4948552;28;48118;-85
2022/05/25 11:26:05;;;;;;;;;1.00;0.00;;;;;33.69;17.07;101264.66;4940895;28;45869;-84
2022/05/25 11:28:50;;;;;;;;;0.00;0.00;;;;;34.15;16.71;101333.94;4911178;28;45566;-84
2022/05/25 11:32:00;;;;;;;;;0.00;0.00;;;;;34.36;16.79;101304.91;4919262;28;45582;-85
2022/05/25 11:35:04;;;;;;;;;0.33;0.33;;;;;34.50;16.68;101330.56;4917659;28;47405;-85
2022/05/25 11:37:47;;;;;;;;;0.00;0.00;;;;;34.44;16.16;101331.88;4922441;28;45422;-91
2022/05/25 11:40:31;;;;;;;;;0.00;0.00;;;;;34.33;16.71;101329.94;4921415;28;45444;-92
2022/05/25 11:43:21;;;;;;;;;0.00;0.00;;;;;34.35;16.31;101281.09;4951642;28;45384;-84
2022/05/25 11:45:50;;;;;;;;;0.00;0.00;;;;;34.73;16.44;101330.72;4948051;28;48325;-84
2022/05/25 11:48:45;;;;;;;;;0.00;0.00;;;;;34.25;16.28;101246.94;4911631;28;45433;-84
2022/05/25 11:51:23;;;;;;;;;0.00;0.00;;;;;34.51;17.13;101277.22;4907909;28;45536;-84
2022/05/25 11:53:56;;;;;;;;;0.00;0.00;;;;;34.47;16.23;101268.31;4936600;28;45542;-85
2022/05/25 11:56:30;;;;;;;;;0.00;0.00;;;;;35.21;16.04;101328.06;4917340;28;46347;-85
2022/05/25 11:59:19;;;;;;;;;0.00;0.00;;;;;35.05;16.57;101333.88;4908575;28;45458;-87